sensor_id;sensor_type;location;lat;lon;timestamp;P1;durP1;ratioP1;P2;durP2;ratioP2
5752;SDS011;2901;42.140;24.760;2024-01-30T00:00:07;4.00;;;3.70;;
5752;SDS011;2901;42.140;24.760;2024-01-30T00:02:33;3.47;;;3.27;;
5752;SDS011;2901;42.140;24.760;2024-01-30T00:04:58;3.97;;;3.73;;
5752;SDS011;2901;42.140;24.760;2024-01-30T00:07:24;3.93;;;3.63;;
5752;SDS011;2901;42.140;24.760;2024-01-30T00:09:49;3.47;;;3.27;;
5752;SDS011;2901;42.140;24.760;2024-01-30T00:12:14;3.50;;;3.20;;
5752;SDS011;2901;42.140;24.760;2024-01-30T00:14:43;3.87;;;3.67;;
5752;SDS011;2901;42.140;24.760;2024-01-30T00:17:09;3.67;;;3.47;;
5752;SDS011;2901;42.140;24.760;2024-01-30T00:19:34;3.80;;;3.30;;
5752;SDS011;2901;42.140;24.760;2024-01-30T00:22:00;4.00;;;3.70;;
5752;SDS011;2901;42.140;24.760;2024-01-30T00:24:25;4.47;;;3.57;;
5752;SDS011;2901;42.140;24.760;2024-01-30T00:26:50;3.90;;;3.60;;
5752;SDS011;2901;42.140;24.760;2024-01-30T00:29:17;4.10;;;3.80;;
5752;SDS011;2901;42.140;24.760;2024-01-30T00:31:47;3.47;;;3.27;;
5752;SDS011;2901;42.140;24.760;2024-01-30T00:34:13;4.00;;;3.80;;
5752;SDS011;2901;42.140;24.760;2024-01-30T00:36:38;4.03;;;3.83;;
5752;SDS011;2901;42.140;24.760;2024-01-30T00:39:04;3.80;;;3.60;;
5752;SDS011;2901;42.140;24.760;2024-01-30T00:41:34;8.93;;;4.47;;
5752;SDS011;2901;42.140;24.760;2024-01-30T00:43:59;4.50;;;4.20;;
5752;SDS011;2901;42.140;24.760;2024-01-30T00:46:25;4.07;;;3.77;;
5752;SDS011;2901;42.140;24.760;2024-01-30T00:48:50;6.70;;;3.80;;
5752;SDS011;2901;42.140;24.760;2024-01-30T00:51:15;4.10;;;3.80;;
5752;SDS011;2901;42.140;24.760;2024-01-30T00:53:41;3.90;;;3.60;;
5752;SDS011;2901;42.140;24.760;2024-01-30T00:56:09;21.70;;;6.37;;
5752;SDS011;2901;42.140;24.760;2024-01-30T00:58:34;7.10;;;4.37;;
5752;SDS011;2901;42.140;24.760;2024-01-30T01:01:00;36.10;;;7.07;;
5752;SDS011;2901;42.140;24.760;2024-01-30T01:03:25;5.37;;;4.20;;
5752;SDS011;2901;42.140;24.760;2024-01-30T01:05:50;5.57;;;4.50;;
5752;SDS011;2901;42.140;24.760;2024-01-30T01:08:16;7.93;;;4.27;;
5752;SDS011;2901;42.140;24.760;2024-01-30T01:10:41;7.80;;;4.83;;
5752;SDS011;2901;42.140;24.760;2024-01-30T01:13:06;5.13;;;4.63;;
5752;SDS011;2901;42.140;24.760;2024-01-30T01:15:32;4.73;;;4.43;;
5752;SDS011;2901;42.140;24.760;2024-01-30T01:17:57;4.43;;;4.13;;
5752;SDS011;2901;42.140;24.760;2024-01-30T01:20:23;4.33;;;3.97;;
5752;SDS011;2901;42.140;24.760;2024-01-30T01:22:48;5.07;;;4.63;;
5752;SDS011;2901;42.140;24.760;2024-01-30T01:25:14;5.33;;;4.83;;
5752;SDS011;2901;42.140;24.760;2024-01-30T01:27:40;4.47;;;4.10;;
5752;SDS011;2901;42.140;24.760;2024-01-30T01:30:09;4.70;;;4.37;;
5752;SDS011;2901;42.140;24.760;2024-01-30T01:32:36;4.93;;;4.53;;
5752;SDS011;2901;42.140;24.760;2024-01-30T01:35:03;3.90;;;3.70;;
5752;SDS011;2901;42.140;24.760;2024-01-30T01:37:30;4.13;;;3.93;;
5752;SDS011;2901;42.140;24.760;2024-01-30T01:39:56;4.27;;;4.07;;
5752;SDS011;2901;42.140;24.760;2024-01-30T01:42:21;4.73;;;4.03;;
5752;SDS011;2901;42.140;24.760;2024-01-30T01:44:47;4.50;;;4.20;;
5752;SDS011;2901;42.140;24.760;2024-01-30T01:47:13;5.20;;;4.80;;
5752;SDS011;2901;42.140;24.760;2024-01-30T01:49:39;4.83;;;4.43;;
5752;SDS011;2901;42.140;24.760;2024-01-30T01:52:04;4.90;;;4.50;;
5752;SDS011;2901;42.140;24.760;2024-01-30T01:54:31;8.43;;;5.80;;
5752;SDS011;2901;42.140;24.760;2024-01-30T01:56:57;6.50;;;5.90;;
5752;SDS011;2901;42.140;24.760;2024-01-30T01:59:22;6.93;;;6.33;;
5752;SDS011;2901;42.140;24.760;2024-01-30T02:01:49;6.47;;;5.93;;
5752;SDS011;2901;42.140;24.760;2024-01-30T02:04:15;6.47;;;5.77;;
5752;SDS011;2901;42.140;24.760;2024-01-30T02:06:41;6.60;;;5.67;;
5752;SDS011;2901;42.140;24.760;2024-01-30T02:09:08;6.07;;;5.57;;
5752;SDS011;2901;42.140;24.760;2024-01-30T02:11:34;7.03;;;5.37;;
5752;SDS011;2901;42.140;24.760;2024-01-30T02:14:03;5.73;;;5.23;;
5752;SDS011;2901;42.140;24.760;2024-01-30T02:16:29;7.37;;;4.90;;
5752;SDS011;2901;42.140;24.760;2024-01-30T02:18:55;6.17;;;5.77;;
5752;SDS011;2901;42.140;24.760;2024-01-30T02:21:20;5.00;;;4.57;;
5752;SDS011;2901;42.140;24.760;2024-01-30T02:23:48;5.60;;;5.20;;
5752;SDS011;2901;42.140;24.760;2024-01-30T02:26:15;5.97;;;5.50;;
5752;SDS011;2901;42.140;24.760;2024-01-30T02:28:41;5.17;;;4.77;;
5752;SDS011;2901;42.140;24.760;2024-01-30T02:31:06;9.43;;;5.27;;
5752;SDS011;2901;42.140;24.760;2024-01-30T02:33:32;6.13;;;5.63;;
5752;SDS011;2901;42.140;24.760;2024-01-30T02:35:57;6.17;;;5.67;;
5752;SDS011;2901;42.140;24.760;2024-01-30T02:38:23;5.83;;;5.43;;
5752;SDS011;2901;42.140;24.760;2024-01-30T02:40:49;5.07;;;4.77;;
5752;SDS011;2901;42.140;24.760;2024-01-30T02:43:15;7.07;;;6.37;;
5752;SDS011;2901;42.140;24.760;2024-01-30T02:45:41;5.83;;;5.37;;
5752;SDS011;2901;42.140;24.760;2024-01-30T02:48:06;6.63;;;6.00;;
5752;SDS011;2901;42.140;24.760;2024-01-30T02:50:32;12.73;;;5.93;;
5752;SDS011;2901;42.140;24.760;2024-01-30T02:52:57;6.83;;;6.27;;
5752;SDS011;2901;42.140;24.760;2024-01-30T02:55:22;7.63;;;6.17;;
5752;SDS011;2901;42.140;24.760;2024-01-30T02:57:48;7.63;;;6.97;;
5752;SDS011;2901;42.140;24.760;2024-01-30T03:00:13;10.27;;;7.53;;
5752;SDS011;2901;42.140;24.760;2024-01-30T03:02:39;9.90;;;7.40;;
5752;SDS011;2901;42.140;24.760;2024-01-30T03:05:05;6.83;;;6.13;;
5752;SDS011;2901;42.140;24.760;2024-01-30T03:07:31;7.77;;;7.07;;
5752;SDS011;2901;42.140;24.760;2024-01-30T03:09:56;9.17;;;6.13;;
5752;SDS011;2901;42.140;24.760;2024-01-30T03:12:22;6.40;;;5.80;;
5752;SDS011;2901;42.140;24.760;2024-01-30T03:14:47;7.20;;;6.67;;
5752;SDS011;2901;42.140;24.760;2024-01-30T03:17:14;8.00;;;6.53;;
5752;SDS011;2901;42.140;24.760;2024-01-30T03:19:40;6.50;;;5.90;;
5752;SDS011;2901;42.140;24.760;2024-01-30T03:22:05;7.30;;;5.83;;
5752;SDS011;2901;42.140;24.760;2024-01-30T03:24:31;13.50;;;5.93;;
5752;SDS011;2901;42.140;24.760;2024-01-30T03:26:56;6.70;;;6.20;;
5752;SDS011;2901;42.140;24.760;2024-01-30T03:29:22;8.47;;;7.67;;
5752;SDS011;2901;42.140;24.760;2024-01-30T03:31:47;7.33;;;6.60;;
5752;SDS011;2901;42.140;24.760;2024-01-30T03:34:12;6.07;;;5.03;;
5752;SDS011;2901;42.140;24.760;2024-01-30T03:36:38;6.53;;;5.93;;
5752;SDS011;2901;42.140;24.760;2024-01-30T03:39:03;5.73;;;5.23;;
5752;SDS011;2901;42.140;24.760;2024-01-30T03:41:28;6.27;;;5.77;;
5752;SDS011;2901;42.140;24.760;2024-01-30T03:43:54;6.50;;;5.93;;
5752;SDS011;2901;42.140;24.760;2024-01-30T03:46:19;7.33;;;6.47;;
5752;SDS011;2901;42.140;24.760;2024-01-30T03:48:45;6.83;;;6.23;;
5752;SDS011;2901;42.140;24.760;2024-01-30T03:51:11;11.07;;;7.80;;
5752;SDS011;2901;42.140;24.760;2024-01-30T03:53:41;8.00;;;6.67;;
5752;SDS011;2901;42.140;24.760;2024-01-30T03:56:07;7.93;;;6.33;;
5752;SDS011;2901;42.140;24.760;2024-01-30T03:58:33;11.00;;;6.90;;
5752;SDS011;2901;42.140;24.760;2024-01-30T04:00:58;10.27;;;7.40;;
5752;SDS011;2901;42.140;24.760;2024-01-30T04:03:23;10.37;;;6.50;;
5752;SDS011;2901;42.140;24.760;2024-01-30T04:05:49;8.97;;;8.07;;
5752;SDS011;2901;42.140;24.760;2024-01-30T04:08:14;8.60;;;7.27;;
5752;SDS011;2901;42.140;24.760;2024-01-30T04:10:40;9.70;;;8.20;;
5752;SDS011;2901;42.140;24.760;2024-01-30T04:13:05;9.63;;;7.73;;
5752;SDS011;2901;42.140;24.760;2024-01-30T04:15:31;7.67;;;6.80;;
5752;SDS011;2901;42.140;24.760;2024-01-30T04:17:59;8.07;;;7.23;;
5752;SDS011;2901;42.140;24.760;2024-01-30T04:20:25;7.70;;;6.30;;
5752;SDS011;2901;42.140;24.760;2024-01-30T04:22:50;7.00;;;6.40;;
5752;SDS011;2901;42.140;24.760;2024-01-30T04:25:16;10.20;;;7.50;;
5752;SDS011;2901;42.140;24.760;2024-01-30T04:27:41;7.87;;;6.83;;
5752;SDS011;2901;42.140;24.760;2024-01-30T04:30:07;12.70;;;6.97;;
5752;SDS011;2901;42.140;24.760;2024-01-30T04:32:32;8.83;;;6.20;;
5752;SDS011;2901;42.140;24.760;2024-01-30T04:34:58;12.97;;;6.87;;
5752;SDS011;2901;42.140;24.760;2024-01-30T04:37:23;7.70;;;7.00;;
5752;SDS011;2901;42.140;24.760;2024-01-30T04:39:49;7.90;;;7.20;;
5752;SDS011;2901;42.140;24.760;2024-01-30T04:42:15;10.70;;;6.83;;
5752;SDS011;2901;42.140;24.760;2024-01-30T04:44:40;7.80;;;7.10;;
5752;SDS011;2901;42.140;24.760;2024-01-30T04:47:05;7.77;;;6.40;;
5752;SDS011;2901;42.140;24.760;2024-01-30T04:49:33;9.03;;;6.93;;
5752;SDS011;2901;42.140;24.760;2024-01-30T04:51:59;7.90;;;7.10;;
5752;SDS011;2901;42.140;24.760;2024-01-30T04:54:25;12.57;;;7.37;;
5752;SDS011;2901;42.140;24.760;2024-01-30T04:56:50;11.30;;;7.03;;
5752;SDS011;2901;42.140;24.760;2024-01-30T04:59:16;7.07;;;5.97;;
5752;SDS011;2901;42.140;24.760;2024-01-30T05:01:41;10.53;;;7.07;;
5752;SDS011;2901;42.140;24.760;2024-01-30T05:04:07;8.57;;;6.97;;
5752;SDS011;2901;42.140;24.760;2024-01-30T05:06:33;7.13;;;6.33;;
5752;SDS011;2901;42.140;24.760;2024-01-30T05:08:58;7.10;;;6.40;;
5752;SDS011;2901;42.140;24.760;2024-01-30T05:11:23;8.97;;;6.03;;
5752;SDS011;2901;42.140;24.760;2024-01-30T05:13:49;7.00;;;6.33;;
5752;SDS011;2901;42.140;24.760;2024-01-30T05:16:14;9.23;;;6.60;;
5752;SDS011;2901;42.140;24.760;2024-01-30T05:18:40;7.77;;;6.97;;
5752;SDS011;2901;42.140;24.760;2024-01-30T05:21:05;8.17;;;5.93;;
5752;SDS011;2901;42.140;24.760;2024-01-30T05:23:30;7.70;;;6.93;;
5752;SDS011;2901;42.140;24.760;2024-01-30T05:25:56;7.03;;;6.43;;
5752;SDS011;2901;42.140;24.760;2024-01-30T05:28:22;7.27;;;6.53;;
5752;SDS011;2901;42.140;24.760;2024-01-30T05:30:47;8.43;;;6.80;;
5752;SDS011;2901;42.140;24.760;2024-01-30T05:33:13;13.23;;;6.83;;
5752;SDS011;2901;42.140;24.760;2024-01-30T05:35:38;10.20;;;6.97;;
5752;SDS011;2901;42.140;24.760;2024-01-30T05:38:04;9.30;;;7.00;;
5752;SDS011;2901;42.140;24.760;2024-01-30T05:40:29;7.57;;;6.30;;
5752;SDS011;2901;42.140;24.760;2024-01-30T05:42:55;8.33;;;7.43;;
5752;SDS011;2901;42.140;24.760;2024-01-30T05:45:23;13.27;;;7.17;;
5752;SDS011;2901;42.140;24.760;2024-01-30T05:47:48;9.77;;;7.90;;
5752;SDS011;2901;42.140;24.760;2024-01-30T05:50:14;11.07;;;7.33;;
5752;SDS011;2901;42.140;24.760;2024-01-30T05:52:40;7.70;;;7.00;;
5752;SDS011;2901;42.140;24.760;2024-01-30T05:55:05;10.57;;;6.83;;
5752;SDS011;2901;42.140;24.760;2024-01-30T05:57:31;7.87;;;6.93;;
5752;SDS011;2901;42.140;24.760;2024-01-30T05:59:56;8.93;;;6.97;;
5752;SDS011;2901;42.140;24.760;2024-01-30T06:02:22;9.53;;;6.73;;
5752;SDS011;2901;42.140;24.760;2024-01-30T06:04:47;8.43;;;7.00;;
5752;SDS011;2901;42.140;24.760;2024-01-30T06:07:13;11.47;;;7.80;;
5752;SDS011;2901;42.140;24.760;2024-01-30T06:09:38;10.00;;;7.10;;
5752;SDS011;2901;42.140;24.760;2024-01-30T06:12:04;10.40;;;7.50;;
5752;SDS011;2901;42.140;24.760;2024-01-30T06:14:30;11.57;;;7.67;;
5752;SDS011;2901;42.140;24.760;2024-01-30T06:16:56;9.73;;;7.13;;
5752;SDS011;2901;42.140;24.760;2024-01-30T06:19:21;10.63;;;8.47;;
5752;SDS011;2901;42.140;24.760;2024-01-30T06:21:46;8.00;;;7.30;;
5752;SDS011;2901;42.140;24.760;2024-01-30T06:24:12;12.60;;;8.17;;
5752;SDS011;2901;42.140;24.760;2024-01-30T06:26:37;11.43;;;7.43;;
5752;SDS011;2901;42.140;24.760;2024-01-30T06:29:02;18.00;;;7.93;;
5752;SDS011;2901;42.140;24.760;2024-01-30T06:31:28;9.87;;;8.17;;
5752;SDS011;2901;42.140;24.760;2024-01-30T06:33:53;11.33;;;8.17;;
5752;SDS011;2901;42.140;24.760;2024-01-30T06:36:19;12.53;;;8.23;;
5752;SDS011;2901;42.140;24.760;2024-01-30T06:38:44;9.77;;;8.53;;
5752;SDS011;2901;42.140;24.760;2024-01-30T06:41:10;11.43;;;8.53;;
5752;SDS011;2901;42.140;24.760;2024-01-30T06:43:35;10.57;;;9.47;;
5752;SDS011;2901;42.140;24.760;2024-01-30T06:46:00;13.10;;;9.10;;
5752;SDS011;2901;42.140;24.760;2024-01-30T06:48:26;15.83;;;9.37;;
5752;SDS011;2901;42.140;24.760;2024-01-30T06:50:54;9.60;;;8.60;;
5752;SDS011;2901;42.140;24.760;2024-01-30T06:53:19;10.00;;;8.00;;
5752;SDS011;2901;42.140;24.760;2024-01-30T06:55:45;16.83;;;8.67;;
5752;SDS011;2901;42.140;24.760;2024-01-30T06:58:10;11.93;;;9.07;;
5752;SDS011;2901;42.140;24.760;2024-01-30T07:00:35;9.97;;;8.60;;
5752;SDS011;2901;42.140;24.760;2024-01-30T07:03:01;11.83;;;8.57;;
5752;SDS011;2901;42.140;24.760;2024-01-30T07:05:26;11.73;;;8.27;;
5752;SDS011;2901;42.140;24.760;2024-01-30T07:07:52;13.87;;;7.73;;
5752;SDS011;2901;42.140;24.760;2024-01-30T07:10:17;14.10;;;8.20;;
5752;SDS011;2901;42.140;24.760;2024-01-30T07:12:43;9.10;;;7.60;;
5752;SDS011;2901;42.140;24.760;2024-01-30T07:15:08;8.87;;;8.00;;
5752;SDS011;2901;42.140;24.760;2024-01-30T07:17:35;11.30;;;8.37;;
5752;SDS011;2901;42.140;24.760;2024-01-30T07:20:00;10.60;;;7.70;;
5752;SDS011;2901;42.140;24.760;2024-01-30T07:22:28;8.87;;;7.73;;
5752;SDS011;2901;42.140;24.760;2024-01-30T07:24:54;8.97;;;7.60;;
5752;SDS011;2901;42.140;24.760;2024-01-30T07:27:20;10.50;;;7.23;;
5752;SDS011;2901;42.140;24.760;2024-01-30T07:29:46;7.47;;;6.83;;
5752;SDS011;2901;42.140;24.760;2024-01-30T07:32:12;7.77;;;6.83;;
5752;SDS011;2901;42.140;24.760;2024-01-30T07:34:37;11.37;;;7.27;;
5752;SDS011;2901;42.140;24.760;2024-01-30T07:37:03;7.97;;;7.27;;
5752;SDS011;2901;42.140;24.760;2024-01-30T07:39:28;9.10;;;6.93;;
5752;SDS011;2901;42.140;24.760;2024-01-30T07:41:53;8.90;;;7.03;;
5752;SDS011;2901;42.140;24.760;2024-01-30T07:44:19;10.63;;;6.83;;
5752;SDS011;2901;42.140;24.760;2024-01-30T07:46:45;7.07;;;6.30;;
5752;SDS011;2901;42.140;24.760;2024-01-30T07:49:10;6.70;;;6.10;;
5752;SDS011;2901;42.140;24.760;2024-01-30T07:51:36;11.07;;;6.93;;
5752;SDS011;2901;42.140;24.760;2024-01-30T07:54:01;23.17;;;7.90;;
5752;SDS011;2901;42.140;24.760;2024-01-30T07:56:26;6.57;;;5.87;;
5752;SDS011;2901;42.140;24.760;2024-01-30T07:58:52;6.47;;;5.13;;
5752;SDS011;2901;42.140;24.760;2024-01-30T08:01:18;7.03;;;6.27;;
5752;SDS011;2901;42.140;24.760;2024-01-30T08:03:43;12.27;;;6.50;;
5752;SDS011;2901;42.140;24.760;2024-01-30T08:06:09;16.23;;;6.60;;
5752;SDS011;2901;42.140;24.760;2024-01-30T08:08:35;7.37;;;6.67;;
5752;SDS011;2901;42.140;24.760;2024-01-30T08:11:00;10.73;;;6.03;;
5752;SDS011;2901;42.140;24.760;2024-01-30T08:13:26;7.27;;;5.23;;
5752;SDS011;2901;42.140;24.760;2024-01-30T08:15:51;6.77;;;4.77;;
5752;SDS011;2901;42.140;24.760;2024-01-30T08:18:16;6.73;;;4.93;;
5752;SDS011;2901;42.140;24.760;2024-01-30T08:20:42;7.03;;;5.17;;
5752;SDS011;2901;42.140;24.760;2024-01-30T08:23:07;12.77;;;5.53;;
5752;SDS011;2901;42.140;24.760;2024-01-30T08:25:33;6.50;;;5.80;;
5752;SDS011;2901;42.140;24.760;2024-01-30T08:27:58;8.93;;;5.57;;
5752;SDS011;2901;42.140;24.760;2024-01-30T08:30:23;4.97;;;4.63;;
5752;SDS011;2901;42.140;24.760;2024-01-30T08:32:49;5.57;;;4.37;;
5752;SDS011;2901;42.140;24.760;2024-01-30T08:35:14;5.67;;;4.23;;
5752;SDS011;2901;42.140;24.760;2024-01-30T08:37:41;5.17;;;4.70;;
5752;SDS011;2901;42.140;24.760;2024-01-30T08:40:07;6.40;;;4.37;;
5752;SDS011;2901;42.140;24.760;2024-01-30T08:42:33;4.43;;;3.90;;
5752;SDS011;2901;42.140;24.760;2024-01-30T08:44:59;4.63;;;4.33;;
5752;SDS011;2901;42.140;24.760;2024-01-30T08:47:24;6.80;;;4.23;;
5752;SDS011;2901;42.140;24.760;2024-01-30T08:49:50;6.33;;;3.40;;
5752;SDS011;2901;42.140;24.760;2024-01-30T08:52:16;3.70;;;3.47;;
5752;SDS011;2901;42.140;24.760;2024-01-30T08:54:41;3.80;;;3.47;;
5752;SDS011;2901;42.140;24.760;2024-01-30T08:57:06;4.73;;;4.13;;
5752;SDS011;2901;42.140;24.760;2024-01-30T08:59:32;4.97;;;4.57;;
5752;SDS011;2901;42.140;24.760;2024-01-30T09:01:58;3.77;;;3.47;;
5752;SDS011;2901;42.140;24.760;2024-01-30T09:04:24;4.17;;;3.87;;
5752;SDS011;2901;42.140;24.760;2024-01-30T09:06:50;4.23;;;3.93;;
5752;SDS011;2901;42.140;24.760;2024-01-30T09:09:15;4.77;;;3.57;;
5752;SDS011;2901;42.140;24.760;2024-01-30T09:11:41;4.30;;;4.00;;
5752;SDS011;2901;42.140;24.760;2024-01-30T09:14:06;3.87;;;3.67;;
5752;SDS011;2901;42.140;24.760;2024-01-30T09:16:32;7.70;;;3.43;;
5752;SDS011;2901;42.140;24.760;2024-01-30T09:18:57;4.17;;;3.93;;
5752;SDS011;2901;42.140;24.760;2024-01-30T09:21:23;4.23;;;3.93;;
5752;SDS011;2901;42.140;24.760;2024-01-30T09:23:48;4.90;;;3.97;;
5752;SDS011;2901;42.140;24.760;2024-01-30T09:26:14;3.97;;;3.67;;
5752;SDS011;2901;42.140;24.760;2024-01-30T09:28:39;5.73;;;4.03;;
5752;SDS011;2901;42.140;24.760;2024-01-30T09:31:10;4.70;;;4.10;;
5752;SDS011;2901;42.140;24.760;2024-01-30T09:33:38;4.83;;;4.33;;
5752;SDS011;2901;42.140;24.760;2024-01-30T09:36:07;4.67;;;4.27;;
5752;SDS011;2901;42.140;24.760;2024-01-30T09:38:32;4.07;;;3.77;;
5752;SDS011;2901;42.140;24.760;2024-01-30T09:40:58;4.80;;;4.17;;
5752;SDS011;2901;42.140;24.760;2024-01-30T09:43:28;5.00;;;4.60;;
5752;SDS011;2901;42.140;24.760;2024-01-30T09:45:58;5.43;;;5.03;;
5752;SDS011;2901;42.140;24.760;2024-01-30T09:48:25;7.40;;;4.03;;
5752;SDS011;2901;42.140;24.760;2024-01-30T09:50:52;4.90;;;4.50;;
5752;SDS011;2901;42.140;24.760;2024-01-30T09:53:18;6.50;;;5.80;;
5752;SDS011;2901;42.140;24.760;2024-01-30T09:55:44;5.77;;;4.93;;
5752;SDS011;2901;42.140;24.760;2024-01-30T09:58:11;7.83;;;4.83;;
5752;SDS011;2901;42.140;24.760;2024-01-30T10:00:37;5.43;;;4.93;;
5752;SDS011;2901;42.140;24.760;2024-01-30T10:03:03;5.13;;;4.83;;
5752;SDS011;2901;42.140;24.760;2024-01-30T10:05:28;6.57;;;5.60;;
5752;SDS011;2901;42.140;24.760;2024-01-30T10:07:58;5.80;;;5.10;;
5752;SDS011;2901;42.140;24.760;2024-01-30T10:10:24;12.70;;;6.43;;
5752;SDS011;2901;42.140;24.760;2024-01-30T10:12:49;7.20;;;5.83;;
5752;SDS011;2901;42.140;24.760;2024-01-30T10:15:15;8.70;;;5.17;;
5752;SDS011;2901;42.140;24.760;2024-01-30T10:17:42;9.43;;;5.17;;
5752;SDS011;2901;42.140;24.760;2024-01-30T10:20:08;8.93;;;5.83;;
5752;SDS011;2901;42.140;24.760;2024-01-30T10:22:34;7.43;;;5.67;;
5752;SDS011;2901;42.140;24.760;2024-01-30T10:25:00;5.60;;;5.20;;
5752;SDS011;2901;42.140;24.760;2024-01-30T10:27:28;5.83;;;5.33;;
5752;SDS011;2901;42.140;24.760;2024-01-30T10:29:54;10.03;;;5.67;;
5752;SDS011;2901;42.140;24.760;2024-01-30T10:32:20;7.00;;;5.67;;
5752;SDS011;2901;42.140;24.760;2024-01-30T10:34:46;10.20;;;5.20;;
5752;SDS011;2901;42.140;24.760;2024-01-30T10:37:12;4.97;;;4.67;;
5752;SDS011;2901;42.140;24.760;2024-01-30T10:39:40;6.87;;;6.17;;
5752;SDS011;2901;42.140;24.760;2024-01-30T10:42:07;6.07;;;5.47;;
5752;SDS011;2901;42.140;24.760;2024-01-30T10:44:58;6.30;;;5.83;;
5752;SDS011;2901;42.140;24.760;2024-01-30T10:47:28;13.00;;;5.57;;
5752;SDS011;2901;42.140;24.760;2024-01-30T10:49:54;6.17;;;5.77;;
5752;SDS011;2901;42.140;24.760;2024-01-30T10:52:20;6.33;;;5.73;;
5752;SDS011;2901;42.140;24.760;2024-01-30T10:54:50;5.87;;;5.47;;
5752;SDS011;2901;42.140;24.760;2024-01-30T10:57:17;9.97;;;5.43;;
5752;SDS011;2901;42.140;24.760;2024-01-30T10:59:43;5.03;;;4.60;;
5752;SDS011;2901;42.140;24.760;2024-01-30T11:02:10;4.43;;;4.13;;
5752;SDS011;2901;42.140;24.760;2024-01-30T11:04:40;5.07;;;4.77;;
5752;SDS011;2901;42.140;24.760;2024-01-30T11:07:16;8.70;;;5.43;;
5752;SDS011;2901;42.140;24.760;2024-01-30T11:09:49;4.53;;;4.23;;
5752;SDS011;2901;42.140;24.760;2024-01-30T11:12:24;4.73;;;4.30;;
5752;SDS011;2901;42.140;24.760;2024-01-30T11:15:01;5.22;;;4.57;;
5752;SDS011;2901;42.140;24.760;2024-01-30T11:20:29;3.77;;;3.40;;
5752;SDS011;2901;42.140;24.760;2024-01-30T11:22:56;3.60;;;3.40;;
5752;SDS011;2901;42.140;24.760;2024-01-30T11:25:22;6.72;;;4.13;;
5752;SDS011;2901;42.140;24.760;2024-01-30T11:27:50;3.75;;;3.55;;
5752;SDS011;2901;42.140;24.760;2024-01-30T11:30:24;3.67;;;3.45;;
5752;SDS011;2901;42.140;24.760;2024-01-30T11:35:25;3.33;;;3.13;;
5752;SDS011;2901;42.140;24.760;2024-01-30T11:37:50;3.40;;;3.20;;
5752;SDS011;2901;42.140;24.760;2024-01-30T11:40:16;4.90;;;3.85;;
5752;SDS011;2901;42.140;24.760;2024-01-30T11:42:42;2.67;;;2.47;;
5752;SDS011;2901;42.140;24.760;2024-01-30T11:45:08;4.05;;;3.70;;
5752;SDS011;2901;42.140;24.760;2024-01-30T11:47:37;3.00;;;2.80;;
5752;SDS011;2901;42.140;24.760;2024-01-30T11:50:04;4.28;;;2.88;;
5752;SDS011;2901;42.140;24.760;2024-01-30T11:52:31;3.83;;;3.53;;
5752;SDS011;2901;42.140;24.760;2024-01-30T11:54:58;4.68;;;2.45;;
5752;SDS011;2901;42.140;24.760;2024-01-30T11:57:26;3.20;;;3.00;;
5752;SDS011;2901;42.140;24.760;2024-01-30T11:59:52;2.85;;;2.65;;
5752;SDS011;2901;42.140;24.760;2024-01-30T12:02:17;2.63;;;2.47;;
5752;SDS011;2901;42.140;24.760;2024-01-30T12:04:42;2.78;;;2.60;;
5752;SDS011;2901;42.140;24.760;2024-01-30T12:07:08;1.98;;;1.88;;
5752;SDS011;2901;42.140;24.760;2024-01-30T12:09:33;1.97;;;1.87;;
5752;SDS011;2901;42.140;24.760;2024-01-30T12:11:59;2.13;;;2.03;;
5752;SDS011;2901;42.140;24.760;2024-01-30T12:14:24;2.90;;;2.80;;
5752;SDS011;2901;42.140;24.760;2024-01-30T12:16:51;5.07;;;3.15;;
5752;SDS011;2901;42.140;24.760;2024-01-30T12:19:25;2.75;;;2.65;;
5752;SDS011;2901;42.140;24.760;2024-01-30T12:21:54;4.80;;;2.75;;
5752;SDS011;2901;42.140;24.760;2024-01-30T12:24:27;2.78;;;2.58;;
5752;SDS011;2901;42.140;24.760;2024-01-30T12:26:56;3.38;;;3.08;;
5752;SDS011;2901;42.140;24.760;2024-01-30T12:29:22;3.08;;;2.92;;
5752;SDS011;2901;42.140;24.760;2024-01-30T12:31:48;2.35;;;2.25;;
5752;SDS011;2901;42.140;24.760;2024-01-30T12:34:13;2.60;;;2.40;;
5752;SDS011;2901;42.140;24.760;2024-01-30T12:36:41;5.53;;;3.60;;
5752;SDS011;2901;42.140;24.760;2024-01-30T12:39:10;3.40;;;3.20;;
5752;SDS011;2901;42.140;24.760;2024-01-30T12:41:37;6.07;;;3.25;;
5752;SDS011;2901;42.140;24.760;2024-01-30T12:44:02;4.55;;;4.15;;
5752;SDS011;2901;42.140;24.760;2024-01-30T12:46:28;4.07;;;3.20;;
5752;SDS011;2901;42.140;24.760;2024-01-30T12:48:54;3.40;;;3.20;;
5752;SDS011;2901;42.140;24.760;2024-01-30T12:51:19;3.30;;;3.00;;
5752;SDS011;2901;42.140;24.760;2024-01-30T12:53:45;3.78;;;3.47;;
5752;SDS011;2901;42.140;24.760;2024-01-30T12:56:12;4.18;;;3.45;;
5752;SDS011;2901;42.140;24.760;2024-01-30T12:58:38;3.15;;;2.90;;
5752;SDS011;2901;42.140;24.760;2024-01-30T13:01:03;6.05;;;3.47;;
5752;SDS011;2901;42.140;24.760;2024-01-30T13:03:29;4.85;;;2.88;;
5752;SDS011;2901;42.140;24.760;2024-01-30T13:05:54;2.80;;;2.60;;
5752;SDS011;2901;42.140;24.760;2024-01-30T13:08:21;6.60;;;3.00;;
5752;SDS011;2901;42.140;24.760;2024-01-30T13:10:46;4.07;;;3.70;;
5752;SDS011;2901;42.140;24.760;2024-01-30T13:13:12;3.50;;;3.20;;
5752;SDS011;2901;42.140;24.760;2024-01-30T13:15:37;3.40;;;3.08;;
5752;SDS011;2901;42.140;24.760;2024-01-30T13:18:03;4.95;;;3.80;;
5752;SDS011;2901;42.140;24.760;2024-01-30T13:20:30;3.85;;;3.55;;
5752;SDS011;2901;42.140;24.760;2024-01-30T13:22:55;4.00;;;3.53;;
5752;SDS011;2901;42.140;24.760;2024-01-30T13:25:21;4.45;;;3.63;;
5752;SDS011;2901;42.140;24.760;2024-01-30T13:27:46;13.95;;;10.13;;
5752;SDS011;2901;42.140;24.760;2024-01-30T13:30:11;9.23;;;8.25;;
5752;SDS011;2901;42.140;24.760;2024-01-30T13:32:37;13.00;;;6.30;;
5752;SDS011;2901;42.140;24.760;2024-01-30T13:35:02;4.93;;;4.55;;
5752;SDS011;2901;42.140;24.760;2024-01-30T13:37:28;7.85;;;4.68;;
5752;SDS011;2901;42.140;24.760;2024-01-30T13:39:54;5.00;;;4.53;;
5752;SDS011;2901;42.140;24.760;2024-01-30T13:42:21;12.82;;;5.15;;
5752;SDS011;2901;42.140;24.760;2024-01-30T13:44:46;6.07;;;5.43;;
5752;SDS011;2901;42.140;24.760;2024-01-30T13:47:12;6.85;;;5.85;;
5752;SDS011;2901;42.140;24.760;2024-01-30T13:49:37;8.77;;;4.65;;
5752;SDS011;2901;42.140;24.760;2024-01-30T13:52:03;6.60;;;5.82;;
5752;SDS011;2901;42.140;24.760;2024-01-30T13:54:28;6.88;;;4.97;;
5752;SDS011;2901;42.140;24.760;2024-01-30T13:56:54;6.80;;;4.43;;
5752;SDS011;2901;42.140;24.760;2024-01-30T13:59:19;5.03;;;4.55;;
5752;SDS011;2901;42.140;24.760;2024-01-30T14:01:49;4.07;;;3.78;;
5752;SDS011;2901;42.140;24.760;2024-01-30T14:04:15;7.65;;;4.22;;
5752;SDS011;2901;42.140;24.760;2024-01-30T14:06:40;7.75;;;4.15;;
5752;SDS011;2901;42.140;24.760;2024-01-30T14:09:06;8.70;;;5.80;;
5752;SDS011;2901;42.140;24.760;2024-01-30T14:11:31;9.90;;;4.10;;
5752;SDS011;2901;42.140;24.760;2024-01-30T14:13:57;12.20;;;4.20;;
5752;SDS011;2901;42.140;24.760;2024-01-30T14:16:22;8.25;;;4.13;;
5752;SDS011;2901;42.140;24.760;2024-01-30T14:18:49;8.85;;;5.25;;
5752;SDS011;2901;42.140;24.760;2024-01-30T14:21:15;5.35;;;4.90;;
5752;SDS011;2901;42.140;24.760;2024-01-30T14:23:40;7.97;;;5.03;;
5752;SDS011;2901;42.140;24.760;2024-01-30T14:26:05;5.70;;;5.15;;
5752;SDS011;2901;42.140;24.760;2024-01-30T14:28:31;7.32;;;5.35;;
5752;SDS011;2901;42.140;24.760;2024-01-30T14:30:56;6.90;;;4.23;;
5752;SDS011;2901;42.140;24.760;2024-01-30T14:33:22;7.82;;;4.15;;
5752;SDS011;2901;42.140;24.760;2024-01-30T14:35:47;12.30;;;4.97;;
5752;SDS011;2901;42.140;24.760;2024-01-30T14:38:13;13.07;;;5.88;;
5752;SDS011;2901;42.140;24.760;2024-01-30T14:40:38;8.38;;;5.78;;
5752;SDS011;2901;42.140;24.760;2024-01-30T14:43:05;18.15;;;6.68;;
5752;SDS011;2901;42.140;24.760;2024-01-30T14:45:30;6.57;;;4.55;;
5752;SDS011;2901;42.140;24.760;2024-01-30T14:47:59;8.55;;;3.83;;
5752;SDS011;2901;42.140;24.760;2024-01-30T14:50:25;5.05;;;4.03;;
5752;SDS011;2901;42.140;24.760;2024-01-30T14:52:52;4.68;;;4.25;;
5752;SDS011;2901;42.140;24.760;2024-01-30T14:55:17;4.13;;;3.83;;